sensor_id;sensor_type;location;lat;lon;timestamp;temperature;humidity
61807;DHT22;47726;52.766;6.606;2022-08-02T00:00:13;14.50;99.90
61807;DHT22;47726;52.766;6.606;2022-08-02T00:02:40;14.40;99.90
61807;DHT22;47726;52.766;6.606;2022-08-02T00:05:06;14.40;99.90
61807;DHT22;47726;52.766;6.606;2022-08-02T00:07:32;14.40;99.90
61807;DHT22;47726;52.766;6.606;2022-08-02T00:09:57;14.40;99.90
61807;DHT22;47726;52.766;6.606;2022-08-02T00:12:23;14.40;99.90
61807;DHT22;47726;52.766;6.606;2022-08-02T00:14:49;14.40;99.90
61807;DHT22;47726;52.766;6.606;2022-08-02T00:17:15;14.40;99.90
61807;DHT22;47726;52.766;6.606;2022-08-02T00:19:41;14.40;99.90
61807;DHT22;47726;52.766;6.606;2022-08-02T00:22:06;14.40;99.90
61807;DHT22;47726;52.766;6.606;2022-08-02T00:24:32;14.40;99.90
61807;DHT22;47726;52.766;6.606;2022-08-02T00:26:58;14.40;99.90
61807;DHT22;47726;52.766;6.606;2022-08-02T00:29:23;14.40;99.90
61807;DHT22;47726;52.766;6.606;2022-08-02T00:31:49;14.40;99.90
61807;DHT22;47726;52.766;6.606;2022-08-02T00:34:15;14.40;99.90
61807;DHT22;47726;52.766;6.606;2022-08-02T00:36:40;14.40;99.90
61807;DHT22;47726;52.766;6.606;2022-08-02T00:39:06;14.40;99.90
61807;DHT22;47726;52.766;6.606;2022-08-02T00:41:32;14.40;99.90
61807;DHT22;47726;52.766;6.606;2022-08-02T00:43:57;14.30;99.90
61807;DHT22;47726;52.766;6.606;2022-08-02T00:46:23;14.30;99.90
61807;DHT22;47726;52.766;6.606;2022-08-02T00:48:48;14.30;99.90
61807;DHT22;47726;52.766;6.606;2022-08-02T00:51:16;14.30;99.90
61807;DHT22;47726;52.766;6.606;2022-08-02T00:53:42;14.30;99.90
61807;DHT22;47726;52.766;6.606;2022-08-02T00:56:07;14.30;99.90
61807;DHT22;47726;52.766;6.606;2022-08-02T00:58:33;14.20;99.90
61807;DHT22;47726;52.766;6.606;2022-08-02T01:00:59;14.20;99.90
61807;DHT22;47726;52.766;6.606;2022-08-02T01:03:26;14.20;99.90
61807;DHT22;47726;52.766;6.606;2022-08-02T01:05:52;14.20;99.90
61807;DHT22;47726;52.766;6.606;2022-08-02T01:08:18;14.10;99.90
61807;DHT22;47726;52.766;6.606;2022-08-02T01:10:44;14.10;99.90
61807;DHT22;47726;52.766;6.606;2022-08-02T01:13:09;14.10;99.90
61807;DHT22;47726;52.766;6.606;2022-08-02T01:15:49;14.10;99.90
61807;DHT22;47726;52.766;6.606;2022-08-02T01:18:25;14.10;99.90
61807;DHT22;47726;52.766;6.606;2022-08-02T01:21:05;14.10;99.90
61807;DHT22;47726;52.766;6.606;2022-08-02T01:29:03;14.10;99.90
61807;DHT22;47726;52.766;6.606;2022-08-02T01:31:45;14.10;99.90
61807;DHT22;47726;52.766;6.606;2022-08-02T01:34:27;14.10;99.90
61807;DHT22;47726;52.766;6.606;2022-08-02T01:37:19;14.10;99.90
61807;DHT22;47726;52.766;6.606;2022-08-02T01:39:45;14.10;99.90
61807;DHT22;47726;52.766;6.606;2022-08-02T01:42:14;14.10;99.90
61807;DHT22;47726;52.766;6.606;2022-08-02T01:44:41;14.10;99.90
61807;DHT22;47726;52.766;6.606;2022-08-02T01:47:16;14.00;99.90
61807;DHT22;47726;52.766;6.606;2022-08-02T01:49:45;14.00;99.90
61807;DHT22;47726;52.766;6.606;2022-08-02T01:52:13;14.00;99.90
61807;DHT22;47726;52.766;6.606;2022-08-02T01:55:08;14.00;99.90
61807;DHT22;47726;52.766;6.606;2022-08-02T01:57:40;14.00;99.90
61807;DHT22;47726;52.766;6.606;2022-08-02T02:00:07;14.00;99.90
61807;DHT22;47726;52.766;6.606;2022-08-02T02:02:37;14.00;99.90
61807;DHT22;47726;52.766;6.606;2022-08-02T02:05:07;13.90;99.90
61807;DHT22;47726;52.766;6.606;2022-08-02T02:07:36;13.90;99.90
61807;DHT22;47726;52.766;6.606;2022-08-02T02:10:03;13.90;99.90
61807;DHT22;47726;52.766;6.606;2022-08-02T02:12:30;13.90;99.90
61807;DHT22;47726;52.766;6.606;2022-08-02T02:14:59;13.90;99.90
61807;DHT22;47726;52.766;6.606;2022-08-02T02:17:27;13.90;99.90
61807;DHT22;47726;52.766;6.606;2022-08-02T02:19:54;13.90;99.90
61807;DHT22;47726;52.766;6.606;2022-08-02T02:22:22;13.80;99.90
61807;DHT22;47726;52.766;6.606;2022-08-02T02:24:48;13.80;99.90
61807;DHT22;47726;52.766;6.606;2022-08-02T02:27:14;13.80;99.90
61807;DHT22;47726;52.766;6.606;2022-08-02T02:29:44;13.80;99.90
61807;DHT22;47726;52.766;6.606;2022-08-02T02:32:13;13.70;99.90
61807;DHT22;47726;52.766;6.606;2022-08-02T02:34:42;13.70;99.90
61807;DHT22;47726;52.766;6.606;2022-08-02T02:37:15;13.70;99.90
61807;DHT22;47726;52.766;6.606;2022-08-02T02:39:43;13.70;99.90
61807;DHT22;47726;52.766;6.606;2022-08-02T02:42:12;13.70;99.90
61807;DHT22;47726;52.766;6.606;2022-08-02T02:44:38;13.60;99.90
61807;DHT22;47726;52.766;6.606;2022-08-02T02:47:05;13.60;99.90
61807;DHT22;47726;52.766;6.606;2022-08-02T02:49:32;13.60;99.90
61807;DHT22;47726;52.766;6.606;2022-08-02T02:51:58;13.60;99.90
61807;DHT22;47726;52.766;6.606;2022-08-02T02:54:25;13.60;99.90
61807;DHT22;47726;52.766;6.606;2022-08-02T02:56:52;13.60;99.90
61807;DHT22;47726;52.766;6.606;2022-08-02T02:59:18;13.60;99.90
61807;DHT22;47726;52.766;6.606;2022-08-02T03:01:44;13.60;99.90
61807;DHT22;47726;52.766;6.606;2022-08-02T03:04:11;13.60;99.90
61807;DHT22;47726;52.766;6.606;2022-08-02T03:06:38;13.60;99.90
61807;DHT22;47726;52.766;6.606;2022-08-02T03:09:06;13.60;99.90
61807;DHT22;47726;52.766;6.606;2022-08-02T03:11:34;13.50;99.90
61807;DHT22;47726;52.766;6.606;2022-08-02T03:14:01;13.50;99.90
61807;DHT22;47726;52.766;6.606;2022-08-02T03:16:28;13.50;99.90
61807;DHT22;47726;52.766;6.606;2022-08-02T03:18:55;13.50;99.90
61807;DHT22;47726;52.766;6.606;2022-08-02T03:21:21;13.50;99.90
61807;DHT22;47726;52.766;6.606;2022-08-02T03:23:47;13.50;99.90
61807;DHT22;47726;52.766;6.606;2022-08-02T03:26:13;13.50;99.90
61807;DHT22;47726;52.766;6.606;2022-08-02T03:28:40;13.50;99.90
61807;DHT22;47726;52.766;6.606;2022-08-02T03:31:06;13.50;99.90
61807;DHT22;47726;52.766;6.606;2022-08-02T03:33:33;13.50;99.90
61807;DHT22;47726;52.766;6.606;2022-08-02T03:36:04;13.50;99.90
61807;DHT22;47726;52.766;6.606;2022-08-02T03:38:31;13.50;99.90
61807;DHT22;47726;52.766;6.606;2022-08-02T03:40:59;13.50;99.90
61807;DHT22;47726;52.766;6.606;2022-08-02T03:43:26;13.40;99.90
61807;DHT22;47726;52.766;6.606;2022-08-02T03:45:53;13.40;99.90
61807;DHT22;47726;52.766;6.606;2022-08-02T03:48:20;13.40;99.90
61807;DHT22;47726;52.766;6.606;2022-08-02T03:50:46;13.30;99.90
61807;DHT22;47726;52.766;6.606;2022-08-02T03:53:14;13.30;99.90
61807;DHT22;47726;52.766;6.606;2022-08-02T03:55:40;13.40;99.90
61807;DHT22;47726;52.766;6.606;2022-08-02T03:58:07;13.30;99.90
61807;DHT22;47726;52.766;6.606;2022-08-02T04:00:33;13.30;99.90
61807;DHT22;47726;52.766;6.606;2022-08-02T04:02:58;13.40;99.90
61807;DHT22;47726;52.766;6.606;2022-08-02T04:05:24;13.30;99.90
61807;DHT22;47726;52.766;6.606;2022-08-02T04:07:50;13.30;99.90
61807;DHT22;47726;52.766;6.606;2022-08-02T04:10:16;13.30;99.90
61807;DHT22;47726;52.766;6.606;2022-08-02T04:12:42;13.30;99.90
61807;DHT22;47726;52.766;6.606;2022-08-02T04:15:11;13.30;99.90
61807;DHT22;47726;52.766;6.606;2022-08-02T04:17:41;13.30;99.90
61807;DHT22;47726;52.766;6.606;2022-08-02T04:20:17;13.40;99.90
61807;DHT22;47726;52.766;6.606;2022-08-02T04:22:48;13.40;99.90
61807;DHT22;47726;52.766;6.606;2022-08-02T04:25:18;13.40;99.90
61807;DHT22;47726;52.766;6.606;2022-08-02T04:27:45;13.40;99.90
61807;DHT22;47726;52.766;6.606;2022-08-02T04:30:11;13.40;99.90
61807;DHT22;47726;52.766;6.606;2022-08-02T04:32:38;13.50;99.90
61807;DHT22;47726;52.766;6.606;2022-08-02T04:35:05;13.50;99.90
61807;DHT22;47726;52.766;6.606;2022-08-02T04:37:33;13.50;99.90
61807;DHT22;47726;52.766;6.606;2022-08-02T04:39:59;13.50;99.90
61807;DHT22;47726;52.766;6.606;2022-08-02T04:42:26;13.50;99.90
61807;DHT22;47726;52.766;6.606;2022-08-02T04:44:52;13.50;99.90
61807;DHT22;47726;52.766;6.606;2022-08-02T04:47:18;13.60;99.90
61807;DHT22;47726;52.766;6.606;2022-08-02T04:49:45;13.60;99.90
61807;DHT22;47726;52.766;6.606;2022-08-02T04:52:11;13.60;99.90
61807;DHT22;47726;52.766;6.606;2022-08-02T04:54:37;13.60;99.90
61807;DHT22;47726;52.766;6.606;2022-08-02T04:57:02;13.70;99.90
61807;DHT22;47726;52.766;6.606;2022-08-02T04:59:48;13.70;99.90
61807;DHT22;47726;52.766;6.606;2022-08-02T05:02:14;13.70;99.90
61807;DHT22;47726;52.766;6.606;2022-08-02T05:04:39;13.80;99.90
61807;DHT22;47726;52.766;6.606;2022-08-02T05:07:05;13.80;99.90
61807;DHT22;47726;52.766;6.606;2022-08-02T05:09:30;13.80;99.90
61807;DHT22;47726;52.766;6.606;2022-08-02T05:11:56;13.80;99.90
61807;DHT22;47726;52.766;6.606;2022-08-02T05:14:22;13.80;99.90
61807;DHT22;47726;52.766;6.606;2022-08-02T05:16:48;13.80;99.90
61807;DHT22;47726;52.766;6.606;2022-08-02T05:19:13;13.80;99.90
61807;DHT22;47726;52.766;6.606;2022-08-02T05:21:39;13.90;99.90
61807;DHT22;47726;52.766;6.606;2022-08-02T05:24:05;13.90;99.90
61807;DHT22;47726;52.766;6.606;2022-08-02T05:26:31;14.00;99.90
61807;DHT22;47726;52.766;6.606;2022-08-02T05:28:56;14.00;99.90
61807;DHT22;47726;52.766;6.606;2022-08-02T05:31:22;14.00;99.90
61807;DHT22;47726;52.766;6.606;2022-08-02T05:33:48;14.00;99.90
61807;DHT22;47726;52.766;6.606;2022-08-02T05:36:13;14.10;99.90
61807;DHT22;47726;52.766;6.606;2022-08-02T05:38:39;14.10;99.90
61807;DHT22;47726;52.766;6.606;2022-08-02T05:41:05;14.20;99.90
61807;DHT22;47726;52.766;6.606;2022-08-02T05:43:31;14.20;99.90
61807;DHT22;47726;52.766;6.606;2022-08-02T05:45:57;14.30;99.90
61807;DHT22;47726;52.766;6.606;2022-08-02T05:48:22;14.30;99.90
61807;DHT22;47726;52.766;6.606;2022-08-02T05:50:54;14.40;99.90
61807;DHT22;47726;52.766;6.606;2022-08-02T05:53:48;14.50;99.90
61807;DHT22;47726;52.766;6.606;2022-08-02T05:56:24;14.50;99.90
61807;DHT22;47726;52.766;6.606;2022-08-02T06:01:34;14.80;99.90
61807;DHT22;47726;52.766;6.606;2022-08-02T06:04:07;15.00;99.90
61807;DHT22;47726;52.766;6.606;2022-08-02T06:06:34;15.10;99.90
61807;DHT22;47726;52.766;6.606;2022-08-02T06:09:13;15.30;99.90
61807;DHT22;47726;52.766;6.606;2022-08-02T06:11:44;15.50;99.90
61807;DHT22;47726;52.766;6.606;2022-08-02T06:14:10;15.60;99.90
61807;DHT22;47726;52.766;6.606;2022-08-02T06:16:38;15.90;99.90
61807;DHT22;47726;52.766;6.606;2022-08-02T06:19:04;16.10;99.90
61807;DHT22;47726;52.766;6.606;2022-08-02T06:21:31;16.30;99.90
61807;DHT22;47726;52.766;6.606;2022-08-02T06:23:57;16.40;99.90
61807;DHT22;47726;52.766;6.606;2022-08-02T06:26:24;16.60;99.90
61807;DHT22;47726;52.766;6.606;2022-08-02T06:28:52;16.80;99.90
61807;DHT22;47726;52.766;6.606;2022-08-02T06:31:18;17.00;99.90
61807;DHT22;47726;52.766;6.606;2022-08-02T06:33:44;17.20;99.90
61807;DHT22;47726;52.766;6.606;2022-08-02T06:38:43;17.70;99.90
61807;DHT22;47726;52.766;6.606;2022-08-02T06:41:13;17.90;99.90
61807;DHT22;47726;52.766;6.606;2022-08-02T06:44:00;18.10;99.90
61807;DHT22;47726;52.766;6.606;2022-08-02T06:46:26;18.30;99.90
61807;DHT22;47726;52.766;6.606;2022-08-02T06:48:52;18.40;99.90
61807;DHT22;47726;52.766;6.606;2022-08-02T06:51:18;18.60;99.90
61807;DHT22;47726;52.766;6.606;2022-08-02T06:53:44;18.80;99.90
61807;DHT22;47726;52.766;6.606;2022-08-02T06:56:10;18.80;99.90
61807;DHT22;47726;52.766;6.606;2022-08-02T06:58:35;19.00;99.90
61807;DHT22;47726;52.766;6.606;2022-08-02T07:01:01;19.00;99.90
61807;DHT22;47726;52.766;6.606;2022-08-02T07:03:32;19.10;99.90
61807;DHT22;47726;52.766;6.606;2022-08-02T07:05:58;19.30;99.90
61807;DHT22;47726;52.766;6.606;2022-08-02T07:08:24;19.40;99.90
61807;DHT22;47726;52.766;6.606;2022-08-02T07:10:50;19.60;99.90
61807;DHT22;47726;52.766;6.606;2022-08-02T07:13:16;19.70;99.90
61807;DHT22;47726;52.766;6.606;2022-08-02T07:15:42;19.90;99.90
61807;DHT22;47726;52.766;6.606;2022-08-02T07:18:08;20.00;99.90
61807;DHT22;47726;52.766;6.606;2022-08-02T07:20:40;20.20;99.90
61807;DHT22;47726;52.766;6.606;2022-08-02T07:23:06;20.40;99.90
61807;DHT22;47726;52.766;6.606;2022-08-02T07:25:32;20.50;99.90
61807;DHT22;47726;52.766;6.606;2022-08-02T07:27:57;20.70;99.90
61807;DHT22;47726;52.766;6.606;2022-08-02T07:30:23;20.70;99.90
61807;DHT22;47726;52.766;6.606;2022-08-02T07:32:48;20.70;99.90
61807;DHT22;47726;52.766;6.606;2022-08-02T07:35:14;20.60;99.90
61807;DHT22;47726;52.766;6.606;2022-08-02T07:37:40;20.50;99.80
61807;DHT22;47726;52.766;6.606;2022-08-02T07:40:09;20.60;99.90
61807;DHT22;47726;52.766;6.606;2022-08-02T07:42:35;20.80;99.90
61807;DHT22;47726;52.766;6.606;2022-08-02T07:45:00;20.90;99.90
61807;DHT22;47726;52.766;6.606;2022-08-02T07:47:26;21.20;99.90
61807;DHT22;47726;52.766;6.606;2022-08-02T07:49:52;21.20;98.90
61807;DHT22;47726;52.766;6.606;2022-08-02T07:52:18;21.40;98.60
61807;DHT22;47726;52.766;6.606;2022-08-02T07:54:45;21.60;98.20
61807;DHT22;47726;52.766;6.606;2022-08-02T07:57:11;21.80;97.80
61807;DHT22;47726;52.766;6.606;2022-08-02T07:59:37;22.00;97.50
61807;DHT22;47726;52.766;6.606;2022-08-02T08:02:02;22.20;97.30
61807;DHT22;47726;52.766;6.606;2022-08-02T08:04:28;22.40;97.40
61807;DHT22;47726;52.766;6.606;2022-08-02T08:06:55;22.60;96.60
61807;DHT22;47726;52.766;6.606;2022-08-02T08:09:21;22.70;96.10
61807;DHT22;47726;52.766;6.606;2022-08-02T08:11:47;22.90;96.60
61807;DHT22;47726;52.766;6.606;2022-08-02T08:14:12;23.00;95.80
61807;DHT22;47726;52.766;6.606;2022-08-02T08:16:38;23.10;95.40
61807;DHT22;47726;52.766;6.606;2022-08-02T08:19:04;23.20;94.50
61807;DHT22;47726;52.766;6.606;2022-08-02T08:21:29;23.30;94.00
61807;DHT22;47726;52.766;6.606;2022-08-02T08:23:56;23.50;94.30
61807;DHT22;47726;52.766;6.606;2022-08-02T08:26:22;23.60;93.70
61807;DHT22;47726;52.766;6.606;2022-08-02T08:28:48;23.80;92.00
61807;DHT22;47726;52.766;6.606;2022-08-02T08:31:14;23.80;92.50
61807;DHT22;47726;52.766;6.606;2022-08-02T08:33:40;23.90;91.30
61807;DHT22;47726;52.766;6.606;2022-08-02T08:36:05;24.10;90.80
61807;DHT22;47726;52.766;6.606;2022-08-02T08:38:31;24.10;90.70
61807;DHT22;47726;52.766;6.606;2022-08-02T08:40:57;24.20;90.40
61807;DHT22;47726;52.766;6.606;2022-08-02T08:43:23;24.30;89.80
61807;DHT22;47726;52.766;6.606;2022-08-02T08:45:48;24.30;90.00
61807;DHT22;47726;52.766;6.606;2022-08-02T08:48:15;24.40;88.70
61807;DHT22;47726;52.766;6.606;2022-08-02T08:53:29;24.60;86.70
61807;DHT22;47726;52.766;6.606;2022-08-02T08:55:56;24.70;86.20
61807;DHT22;47726;52.766;6.606;2022-08-02T08:58:23;24.90;86.80
61807;DHT22;47726;52.766;6.606;2022-08-02T09:00:49;25.10;87.20
61807;DHT22;47726;52.766;6.606;2022-08-02T09:03:14;25.30;85.90
61807;DHT22;47726;52.766;6.606;2022-08-02T09:05:40;25.40;85.40
61807;DHT22;47726;52.766;6.606;2022-08-02T09:08:07;25.40;81.20
61807;DHT22;47726;52.766;6.606;2022-08-02T09:10:43;25.50;81.30
61807;DHT22;47726;52.766;6.606;2022-08-02T09:15:36;25.60;75.10
61807;DHT22;47726;52.766;6.606;2022-08-02T09:18:03;25.70;77.80
61807;DHT22;47726;52.766;6.606;2022-08-02T09:20:35;25.80;76.60
61807;DHT22;47726;52.766;6.606;2022-08-02T09:23:15;25.80;75.30
61807;DHT22;47726;52.766;6.606;2022-08-02T09:25:41;26.00;75.30
61807;DHT22;47726;52.766;6.606;2022-08-02T09:28:07;26.10;76.50
61807;DHT22;47726;52.766;6.606;2022-08-02T09:30:41;26.20;75.30
61807;DHT22;47726;52.766;6.606;2022-08-02T09:33:08;26.30;76.00
61807;DHT22;47726;52.766;6.606;2022-08-02T09:35:37;26.40;76.40
61807;DHT22;47726;52.766;6.606;2022-08-02T09:38:09;26.50;75.60
61807;DHT22;47726;52.766;6.606;2022-08-02T09:40:36;26.50;75.90
61807;DHT22;47726;52.766;6.606;2022-08-02T09:43:02;26.70;76.00
61807;DHT22;47726;52.766;6.606;2022-08-02T09:45:32;26.80;75.80
61807;DHT22;47726;52.766;6.606;2022-08-02T09:48:06;26.90;74.90
61807;DHT22;47726;52.766;6.606;2022-08-02T09:50:34;26.90;76.70
61807;DHT22;47726;52.766;6.606;2022-08-02T09:53:01;26.90;75.30
61807;DHT22;47726;52.766;6.606;2022-08-02T09:55:27;26.90;76.30
61807;DHT22;47726;52.766;6.606;2022-08-02T09:57:53;27.00;76.80
61807;DHT22;47726;52.766;6.606;2022-08-02T10:00:19;27.00;77.30
61807;DHT22;47726;52.766;6.606;2022-08-02T10:03:13;27.00;77.80
61807;DHT22;47726;52.766;6.606;2022-08-02T10:05:52;27.10;77.30
61807;DHT22;47726;52.766;6.606;2022-08-02T10:08:23;27.10;78.00
61807;DHT22;47726;52.766;6.606;2022-08-02T10:10:50;27.10;77.60
61807;DHT22;47726;52.766;6.606;2022-08-02T10:13:32;27.10;77.50
61807;DHT22;47726;52.766;6.606;2022-08-02T10:15:59;27.00;76.70
61807;DHT22;47726;52.766;6.606;2022-08-02T10:18:27;26.90;77.20
61807;DHT22;47726;52.766;6.606;2022-08-02T10:20:55;26.80;77.40
61807;DHT22;47726;52.766;6.606;2022-08-02T10:23:22;26.70;78.70
61807;DHT22;47726;52.766;6.606;2022-08-02T10:25:49;26.80;79.30
61807;DHT22;47726;52.766;6.606;2022-08-02T10:28:17;26.80;80.30
61807;DHT22;47726;52.766;6.606;2022-08-02T10:30:46;26.80;79.80
61807;DHT22;47726;52.766;6.606;2022-08-02T10:33:16;27.00;81.30
61807;DHT22;47726;52.766;6.606;2022-08-02T10:35:44;27.00;80.40
61807;DHT22;47726;52.766;6.606;2022-08-02T10:38:12;27.10;80.40
61807;DHT22;47726;52.766;6.606;2022-08-02T10:40:51;27.20;80.10
61807;DHT22;47726;52.766;6.606;2022-08-02T10:54:26;27.60;77.40
61807;DHT22;47726;52.766;6.606;2022-08-02T10:56:54;27.60;77.50
61807;DHT22;47726;52.766;6.606;2022-08-02T11:01:52;27.50;74.50
61807;DHT22;47726;52.766;6.606;2022-08-02T11:04:29;27.50;74.20
61807;DHT22;47726;52.766;6.606;2022-08-02T11:09:34;27.50;75.10
61807;DHT22;47726;52.766;6.606;2022-08-02T11:12:09;27.50;76.00
61807;DHT22;47726;52.766;6.606;2022-08-02T11:14:37;27.50;75.70
61807;DHT22;47726;52.766;6.606;2022-08-02T11:19:30;27.40;76.80
61807;DHT22;47726;52.766;6.606;2022-08-02T11:22:07;27.40;77.20
61807;DHT22;47726;52.766;6.606;2022-08-02T11:24:35;27.50;76.70
61807;DHT22;47726;52.766;6.606;2022-08-02T11:27:04;27.50;77.50
61807;DHT22;47726;52.766;6.606;2022-08-02T11:29:44;27.60;76.10
61807;DHT22;47726;52.766;6.606;2022-08-02T11:32:22;27.60;77.10
61807;DHT22;47726;52.766;6.606;2022-08-02T11:34:52;27.60;76.60
61807;DHT22;47726;52.766;6.606;2022-08-02T11:37:28;27.60;76.20
61807;DHT22;47726;52.766;6.606;2022-08-02T11:39:54;27.60;77.50
61807;DHT22;47726;52.766;6.606;2022-08-02T11:42:20;27.80;78.80
61807;DHT22;47726;52.766;6.606;2022-08-02T11:44:45;27.80;76.80
61807;DHT22;47726;52.766;6.606;2022-08-02T11:47:13;27.70;73.10
61807;DHT22;47726;52.766;6.606;2022-08-02T11:49:39;27.70;74.00
61807;DHT22;47726;52.766;6.606;2022-08-02T11:52:08;27.80;72.00
61807;DHT22;47726;52.766;6.606;2022-08-02T11:54:37;27.80;71.10
61807;DHT22;47726;52.766;6.606;2022-08-02T11:57:15;27.80;69.40
61807;DHT22;47726;52.766;6.606;2022-08-02T11:59:43;27.80;70.40
61807;DHT22;47726;52.766;6.606;2022-08-02T12:02:10;27.90;71.20
61807;DHT22;47726;52.766;6.606;2022-08-02T12:04:36;27.80;71.20
61807;DHT22;47726;52.766;6.606;2022-08-02T12:07:03;27.80;73.30
61807;DHT22;47726;52.766;6.606;2022-08-02T12:09:31;27.80;73.90
61807;DHT22;47726;52.766;6.606;2022-08-02T12:11:58;27.80;73.70
61807;DHT22;47726;52.766;6.606;2022-08-02T12:14:26;27.70;74.10
61807;DHT22;47726;52.766;6.606;2022-08-02T12:16:52;27.80;76.20
61807;DHT22;47726;52.766;6.606;2022-08-02T12:19:37;27.90;77.10
61807;DHT22;47726;52.766;6.606;2022-08-02T12:22:17;28.00;76.80
61807;DHT22;47726;52.766;6.606;2022-08-02T12:24:51;28.00;76.40
61807;DHT22;47726;52.766;6.606;2022-08-02T12:27:35;28.00;75.40
61807;DHT22;47726;52.766;6.606;2022-08-02T12:30:11;28.00;76.10
61807;DHT22;47726;52.766;6.606;2022-08-02T12:32:38;28.00;77.20
61807;DHT22;47726;52.766;6.606;2022-08-02T12:35:05;28.10;76.70
61807;DHT22;47726;52.766;6.606;2022-08-02T12:37:31;28.00;76.10
61807;DHT22;47726;52.766;6.606;2022-08-02T12:39:57;28.00;77.10
61807;DHT22;47726;52.766;6.606;2022-08-02T12:42:22;27.90;76.10
61807;DHT22;47726;52.766;6.606;2022-08-02T12:44:56;27.90;75.80
61807;DHT22;47726;52.766;6.606;2022-08-02T12:47:25;27.90;77.30
61807;DHT22;47726;52.766;6.606;2022-08-02T12:52:36;27.90;77.70
61807;DHT22;47726;52.766;6.606;2022-08-02T12:55:35;27.80;74.10
61807;DHT22;47726;52.766;6.606;2022-08-02T12:58:05;27.70;75.80
61807;DHT22;47726;52.766;6.606;2022-08-02T13:00:36;27.60;76.00
61807;DHT22;47726;52.766;6.606;2022-08-02T13:03:02;27.60;76.60
61807;DHT22;47726;52.766;6.606;2022-08-02T13:05:29;27.60;76.60
61807;DHT22;47726;52.766;6.606;2022-08-02T13:07:56;27.60;76.60
61807;DHT22;47726;52.766;6.606;2022-08-02T13:10:23;27.60;75.60
61807;DHT22;47726;52.766;6.606;2022-08-02T13:12:50;27.50;75.30
61807;DHT22;47726;52.766;6.606;2022-08-02T13:15:16;27.60;75.90
61807;DHT22;47726;52.766;6.606;2022-08-02T13:17:43;27.60;76.60
61807;DHT22;47726;52.766;6.606;2022-08-02T13:20:09;27.50;76.60
61807;DHT22;47726;52.766;6.606;2022-08-02T13:22:36;27.50;77.00
61807;DHT22;47726;52.766;6.606;2022-08-02T13:25:03;27.50;77.30
61807;DHT22;47726;52.766;6.606;2022-08-02T13:27:29;27.50;77.80
61807;DHT22;47726;52.766;6.606;2022-08-02T13:29:56;27.50;78.50
61807;DHT22;47726;52.766;6.606;2022-08-02T13:32:23;27.50;78.30
61807;DHT22;47726;52.766;6.606;2022-08-02T13:34:49;27.50;78.30
61807;DHT22;47726;52.766;6.606;2022-08-02T13:37:16;27.50;79.00
61807;DHT22;47726;52.766;6.606;2022-08-02T13:39:42;27.60;79.80
61807;DHT22;47726;52.766;6.606;2022-08-02T13:42:07;27.60;80.10
61807;DHT22;47726;52.766;6.606;2022-08-02T13:44:34;27.70;80.50
61807;DHT22;47726;52.766;6.606;2022-08-02T13:47:02;27.70;80.90
61807;DHT22;47726;52.766;6.606;2022-08-02T13:49:29;27.70;80.40
61807;DHT22;47726;52.766;6.606;2022-08-02T13:51:54;27.80;80.40
61807;DHT22;47726;52.766;6.606;2022-08-02T13:54:20;27.80;80.40
61807;DHT22;47726;52.766;6.606;2022-08-02T13:56:46;27.80;79.10
61807;DHT22;47726;52.766;6.606;2022-08-02T13:59:12;27.80;79.50
61807;DHT22;47726;52.766;6.606;2022-08-02T14:01:38;27.70;79.50
61807;DHT22;47726;52.766;6.606;2022-08-02T14:04:04;27.70;79.70
61807;DHT22;47726;52.766;6.606;2022-08-02T14:06:29;27.70;81.30
61807;DHT22;47726;52.766;6.606;2022-08-02T14:08:55;27.70;82.00
61807;DHT22;47726;52.766;6.606;2022-08-02T14:11:21;27.70;81.70
61807;DHT22;47726;52.766;6.606;2022-08-02T14:13:47;27.60;80.50
61807;DHT22;47726;52.766;6.606;2022-08-02T14:16:12;27.60;81.50
61807;DHT22;47726;52.766;6.606;2022-08-02T14:18:38;27.50;82.10
61807;DHT22;47726;52.766;6.606;2022-08-02T14:21:04;27.40;81.50
61807;DHT22;47726;52.766;6.606;2022-08-02T14:23:29;27.40;81.40
61807;DHT22;47726;52.766;6.606;2022-08-02T14:25:56;27.40;81.30
61807;DHT22;47726;52.766;6.606;2022-08-02T14:28:23;27.30;82.40
61807;DHT22;47726;52.766;6.606;2022-08-02T14:30:48;27.30;83.10
61807;DHT22;47726;52.766;6.606;2022-08-02T14:33:14;27.30;83.90
61807;DHT22;47726;52.766;6.606;2022-08-02T14:35:40;27.20;84.50
61807;DHT22;47726;52.766;6.606;2022-08-02T14:38:06;27.30;85.70
61807;DHT22;47726;52.766;6.606;2022-08-02T14:40:32;27.40;85.70
61807;DHT22;47726;52.766;6.606;2022-08-02T14:43:02;27.40;84.60
61807;DHT22;47726;52.766;6.606;2022-08-02T14:45:28;27.40;84.40
61807;DHT22;47726;52.766;6.606;2022-08-02T14:47:55;27.40;83.60
61807;DHT22;47726;52.766;6.606;2022-08-02T14:50:21;27.30;83.40
61807;DHT22;47726;52.766;6.606;2022-08-02T14:52:47;27.40;84.70
61807;DHT22;47726;52.766;6.606;2022-08-02T14:55:14;27.40;85.10
61807;DHT22;47726;52.766;6.606;2022-08-02T14:57:39;27.40;85.60
61807;DHT22;47726;52.766;6.606;2022-08-02T15:00:05;27.40;85.30
61807;DHT22;47726;52.766;6.606;2022-08-02T15:02:32;27.30;85.80
61807;DHT22;47726;52.766;6.606;2022-08-02T15:04:57;27.30;85.60
61807;DHT22;47726;52.766;6.606;2022-08-02T15:07:23;27.40;85.70
61807;DHT22;47726;52.766;6.606;2022-08-02T15:09:49;27.30;85.40
61807;DHT22;47726;52.766;6.606;2022-08-02T15:12:15;27.30;85.60
61807;DHT22;47726;52.766;6.606;2022-08-02T15:14:41;27.30;86.60
61807;DHT22;47726;52.766;6.606;2022-08-02T15:17:07;27.40;87.30
61807;DHT22;47726;52.766;6.606;2022-08-02T15:19:33;27.50;88.00
61807;DHT22;47726;52.766;6.606;2022-08-02T15:21:59;27.50;87.70
61807;DHT22;47726;52.766;6.606;2022-08-02T15:24:25;27.60;87.60
61807;DHT22;47726;52.766;6.606;2022-08-02T15:26:52;27.60;88.70
61807;DHT22;47726;52.766;6.606;2022-08-02T15:29:19;27.60;87.20
61807;DHT22;47726;52.766;6.606;2022-08-02T15:31:45;27.60;85.80
61807;DHT22;47726;52.766;6.606;2022-08-02T15:34:11;27.60;84.20
61807;DHT22;47726;52.766;6.606;2022-08-02T15:36:37;27.60;84.70
61807;DHT22;47726;52.766;6.606;2022-08-02T15:39:03;27.50;84.80
61807;DHT22;47726;52.766;6.606;2022-08-02T15:41:28;27.50;83.90
61807;DHT22;47726;52.766;6.606;2022-08-02T15:43:54;27.50;84.20
61807;DHT22;47726;52.766;6.606;2022-08-02T15:46:20;27.50;84.20
61807;DHT22;47726;52.766;6.606;2022-08-02T15:48:46;27.50;83.40
61807;DHT22;47726;52.766;6.606;2022-08-02T15:51:11;27.50;83.60
61807;DHT22;47726;52.766;6.606;2022-08-02T15:53:37;27.50;82.20
61807;DHT22;47726;52.766;6.606;2022-08-02T15:56:03;27.50;81.90
61807;DHT22;47726;52.766;6.606;2022-08-02T15:58:28;27.40;81.80
61807;DHT22;47726;52.766;6.606;2022-08-02T16:00:54;27.30;81.30
61807;DHT22;47726;52.766;6.606;2022-08-02T16:03:20;27.30;82.30
61807;DHT22;47726;52.766;6.606;2022-08-02T16:05:46;27.30;82.60
61807;DHT22;47726;52.766;6.606;2022-08-02T16:08:11;27.30;83.60
61807;DHT22;47726;52.766;6.606;2022-08-02T16:10:37;27.30;82.70